Time,TemperatureF,DewpointF,PressureIn,WindDirection,WindDirectionDegrees,WindSpeedMPH,WindSpeedGustMPH,Humidity,HourlyPrecipIn,Conditions,Clouds,dailyrainin,SoftwareType,DateUTC
2013-08-14 00:00:00,78.1,72.5,29.92,ESE,107,0.0,0.0,83,0.00,,,0.31,Wunderground v.1.15,2013-08-14 05:00:00,
2013-08-14 00:05:00,78.0,72.4,29.92,ESE,107,0.0,4.0,83,0.00,,,0.00,Wunderground v.1.15,2013-08-14 05:05:00,
2013-08-14 00:15:00,77.9,72.7,29.92,ESE,106,0.0,0.0,84,0.00,,,0.00,Wunderground v.1.15,2013-08-14 05:15:00,
2013-08-14 00:20:00,77.8,72.6,29.92,ESE,106,0.0,0.0,84,0.00,,,0.00,Wunderground v.1.15,2013-08-14 05:20:00,
2013-08-14 00:25:00,77.8,72.6,29.92,ESE,105,0.0,0.0,84,0.00,,,0.00,Wunderground v.1.15,2013-08-14 05:25:00,
2013-08-14 00:30:00,77.8,72.9,29.93,ESE,105,0.0,1.0,85,0.00,,,0.00,Wunderground v.1.15,2013-08-14 05:30:00,
2013-08-14 00:35:00,77.7,72.8,29.93,ESE,106,0.0,1.0,85,0.00,,,0.00,Wunderground v.1.15,2013-08-14 05:35:00,
2013-08-14 00:45:00,77.6,72.4,29.93,ESE,105,0.0,0.0,84,0.00,,,0.00,Wunderground v.1.15,2013-08-14 05:45:00,
2013-08-14 00:50:00,77.7,72.5,29.93,ESE,105,0.0,1.0,84,0.00,,,0.00,Wunderground v.1.15,2013-08-14 05:50:00,
2013-08-14 00:55:00,77.7,72.5,29.92,East,92,1.0,4.0,84,0.00,,,0.00,Wunderground v.1.15,2013-08-14 05:55:00,
2013-08-14 01:00:00,77.7,72.5,29.93,East,84,2.0,2.0,84,0.00,,,0.00,Wunderground v.1.15,2013-08-14 06:00:00,
2013-08-14 01:10:00,77.8,72.6,29.93,ENE,69,1.0,1.0,84,0.00,,,0.00,Wunderground v.1.15,2013-08-14 06:10:00,
2013-08-14 01:20:00,77.9,72.7,29.92,ENE,69,0.0,2.0,84,0.00,,,0.00,Wunderground v.1.15,2013-08-14 06:20:00,
2013-08-14 01:25:00,77.9,72.7,29.92,ENE,69,0.0,2.0,84,0.00,,,0.00,Wunderground v.1.15,2013-08-14 06:25:00,
2013-08-14 01:30:00,78.0,72.8,29.92,ENE,69,0.0,0.0,84,0.00,,,0.00,Wunderground v.1.15,2013-08-14 06:30:00,
2013-08-14 01:35:00,78.0,72.8,29.92,ENE,67,0.0,0.0,84,0.00,,,0.00,Wunderground v.1.15,2013-08-14 06:35:00,
2013-08-14 01:40:00,78.0,72.8,29.92,ENE,67,0.0,0.0,84,0.00,,,0.00,Wunderground v.1.15,2013-08-14 06:40:00,
2013-08-14 01:50:00,78.0,73.1,29.92,ENE,76,1.0,4.0,85,0.00,,,0.00,Wunderground v.1.15,2013-08-14 06:50:00,
2013-08-14 01:55:00,78.0,73.1,29.91,ENE,73,1.0,4.0,85,0.00,,,0.00,Wunderground v.1.15,2013-08-14 06:55:00,
2013-08-14 02:00:00,77.9,73.0,29.91,ENE,73,0.0,0.0,85,0.00,,,0.00,Wunderground v.1.15,2013-08-14 07:00:00,
2013-08-14 02:10:00,77.8,73.3,29.91,ENE,74,0.0,0.0,86,0.00,,,0.00,Wunderground v.1.15,2013-08-14 07:10:00,
2013-08-14 02:15:00,77.6,73.1,29.92,ENE,74,0.0,0.0,86,0.00,,,0.00,Wunderground v.1.15,2013-08-14 07:15:00,
2013-08-14 02:20:00,77.6,73.1,29.92,ENE,74,0.0,0.0,86,0.00,,,0.00,Wunderground v.1.15,2013-08-14 07:20:00,
2013-08-14 02:25:00,77.5,73.0,29.92,ENE,69,0.0,0.0,86,0.00,,,0.00,Wunderground v.1.15,2013-08-14 07:25:00,
2013-08-14 02:35:00,77.4,73.2,29.91,ENE,69,0.0,1.0,87,0.00,,,0.00,Wunderground v.1.15,2013-08-14 07:35:00,
2013-08-14 02:40:00,77.3,73.1,29.91,East,84,0.0,5.0,87,0.00,,,0.00,Wunderground v.1.15,2013-08-14 07:40:00,
2013-08-14 02:45:00,77.3,73.1,29.91,East,84,1.0,5.0,87,0.00,,,0.00,Wunderground v.1.15,2013-08-14 07:45:00,
2013-08-14 02:50:00,77.3,73.1,29.91,East,84,1.0,4.0,87,0.00,,,0.00,Wunderground v.1.15,2013-08-14 07:50:00,
2013-08-14 03:00:00,77.1,73.3,29.91,East,84,0.0,0.0,88,0.00,,,0.00,Wunderground v.1.15,2013-08-14 08:00:00,
2013-08-14 03:10:00,77.1,73.3,29.91,East,84,0.0,0.0,88,0.00,,,0.00,Wunderground v.1.15,2013-08-14 08:10:00,
2013-08-14 03:15:00,77.0,73.2,29.91,East,84,0.0,0.0,88,0.00,,,0.00,Wunderground v.1.15,2013-08-14 08:15:00,
2013-08-14 03:20:00,77.0,73.2,29.91,East,84,0.0,0.0,88,0.00,,,0.00,Wunderground v.1.15,2013-08-14 08:20:00,
2013-08-14 03:25:00,76.9,73.1,29.90,East,84,0.0,0.0,88,0.00,,,0.00,Wunderground v.1.15,2013-08-14 08:25:00,
2013-08-14 03:30:00,76.9,73.1,29.90,East,84,0.0,0.0,88,0.00,,,0.00,Wunderground v.1.15,2013-08-14 08:30:00,
2013-08-14 03:40:00,76.9,73.1,29.91,East,84,0.0,0.0,88,0.00,,,0.00,Wunderground v.1.15,2013-08-14 08:40:00,
2013-08-14 03:45:00,77.0,73.2,29.90,East,84,0.0,0.0,88,0.00,,,0.00,Wunderground v.1.15,2013-08-14 08:45:00,
2013-08-14 03:50:00,77.0,73.2,29.90,East,84,0.0,0.0,88,0.00,,,0.00,Wunderground v.1.15,2013-08-14 08:50:00,
2013-08-14 03:55:00,77.0,73.2,29.89,East,84,0.0,0.0,88,0.00,,,0.00,Wunderground v.1.15,2013-08-14 08:55:00,
2013-08-14 04:00:00,77.0,73.2,29.89,East,84,0.0,0.0,88,0.00,,,0.00,Wunderground v.1.15,2013-08-14 09:00:00,
2013-08-14 04:10:00,77.0,73.2,29.91,East,84,0.0,0.0,88,0.00,,,0.00,Wunderground v.1.15,2013-08-14 09:10:00,
2013-08-14 04:20:00,77.1,73.3,29.93,NW,324,3.0,9.0,88,0.00,,,0.00,Wunderground v.1.15,2013-08-14 09:20:00,
2013-08-14 04:25:00,77.5,73.7,29.93,NNW,345,7.0,9.0,88,0.00,,,0.00,Wunderground v.1.15,2013-08-14 09:25:00,
2013-08-14 04:30:00,77.7,74.2,29.93,NNE,22,7.0,10.0,89,1.67,,,0.11,Wunderground v.1.15,2013-08-14 09:30:00,
2013-08-14 04:35:00,77.3,73.8,29.93,North,360,5.0,10.0,89,0.35,,,0.16,Wunderground v.1.15,2013-08-14 09:35:00,
2013-08-14 04:40:00,76.7,73.2,29.92,NE,39,6.0,14.0,89,0.13,,,0.17,Wunderground v.1.15,2013-08-14 09:40:00,
2013-08-14 04:50:00,75.3,72.2,29.91,ESE,115,9.0,9.0,90,0.08,,,0.18,Wunderground v.1.15,2013-08-14 09:50:00,
2013-08-14 04:55:00,75.0,71.9,29.91,ESE,103,5.0,9.0,90,0.05,,,0.18,Wunderground v.1.15,2013-08-14 09:55:00,
2013-08-14 05:00:00,74.7,71.9,29.92,East,80,3.0,3.0,91,0.00,,,0.18,Wunderground v.1.15,2013-08-14 10:00:00,
2013-08-14 05:10:00,74.5,71.7,29.92,ENE,75,1.0,2.0,91,0.00,,,0.19,Wunderground v.1.15,2013-08-14 10:10:00,
2013-08-14 05:15:00,74.4,71.6,29.92,ENE,75,0.0,2.0,91,0.08,,,0.19,Wunderground v.1.15,2013-08-14 10:15:00,
2013-08-14 05:20:00,74.1,71.3,29.92,ENE,67,0.0,0.0,91,0.22,,,0.21,Wunderground v.1.15,2013-08-14 10:20:00,
2013-08-14 05:30:00,73.7,71.2,29.93,ENE,67,0.0,0.0,92,0.05,,,0.21,Wunderground v.1.15,2013-08-14 10:30:00,
2013-08-14 05:35:00,73.6,71.1,29.93,ENE,67,0.0,0.0,92,0.00,,,0.21,Wunderground v.1.15,2013-08-14 10:35:00,
2013-08-14 05:40:00,73.8,71.3,29.93,ENE,63,0.0,0.0,92,0.00,,,0.21,Wunderground v.1.15,2013-08-14 10:40:00,
2013-08-14 05:45:00,74.0,71.8,29.92,East,82,2.0,6.0,93,0.00,,,0.21,Wunderground v.1.15,2013-08-14 10:45:00,
2013-08-14 05:50:00,74.2,72.0,29.92,East,91,3.0,3.0,93,0.00,,,0.22,Wunderground v.1.15,2013-08-14 10:50:00,
2013-08-14 06:00:00,74.4,72.2,29.92,ESE,108,2.0,2.0,93,0.00,,,0.22,Wunderground v.1.15,2013-08-14 11:00:00,
2013-08-14 06:10:00,74.4,72.2,29.93,East,84,1.0,1.0,93,0.00,,,0.22,Wunderground v.1.15,2013-08-14 11:10:00,
2013-08-14 06:15:00,74.5,72.3,29.93,ENE,73,2.0,5.0,93,0.00,,,0.22,Wunderground v.1.15,2013-08-14 11:15:00,
2013-08-14 06:20:00,74.6,72.4,29.93,ENE,64,1.0,1.0,93,0.00,,,0.22,Wunderground v.1.15,2013-08-14 11:20:00,
2013-08-14 06:25:00,74.6,72.4,29.93,East,80,2.0,2.0,93,0.00,,,0.22,Wunderground v.1.15,2013-08-14 11:25:00,
2013-08-14 06:30:00,74.5,72.3,29.93,East,80,1.0,1.0,93,0.00,,,0.22,Wunderground v.1.15,2013-08-14 11:30:00,
2013-08-14 06:40:00,74.1,71.9,29.93,East,80,0.0,0.0,93,0.00,,,0.22,Wunderground v.1.15,2013-08-14 11:40:00,
2013-08-14 06:45:00,74.0,71.8,29.94,East,80,0.0,0.0,93,0.00,,,0.22,Wunderground v.1.15,2013-08-14 11:45:00,
2013-08-14 06:50:00,74.0,71.8,29.94,East,80,0.0,0.0,93,0.00,,,0.22,Wunderground v.1.15,2013-08-14 11:50:00,
2013-08-14 06:55:00,74.1,72.3,29.94,East,80,0.0,0.0,94,0.00,,,0.22,Wunderground v.1.15,2013-08-14 11:55:00,
2013-08-14 07:00:00,74.2,72.4,29.95,East,80,0.0,0.0,94,0.00,,,0.22,Wunderground v.1.15,2013-08-14 12:00:00,
2013-08-14 07:10:00,74.3,72.5,29.94,East,80,0.0,0.0,94,0.54,,,0.26,Wunderground v.1.15,2013-08-14 12:10:00,
2013-08-14 07:15:00,74.3,72.5,29.93,East,80,0.0,0.0,94,0.18,,,0.28,Wunderground v.1.15,2013-08-14 12:15:00,
2013-08-14 07:25:00,74.8,73.0,29.93,East,80,0.0,0.0,94,0.06,,,0.29,Wunderground v.1.15,2013-08-14 12:25:00,
2013-08-14 07:30:00,74.8,73.0,29.93,East,80,0.0,4.0,94,0.04,,,0.29,Wunderground v.1.15,2013-08-14 12:30:00,
2013-08-14 07:35:00,74.6,72.8,29.94,NE,45,0.0,4.0,94,0.00,,,0.29,Wunderground v.1.15,2013-08-14 12:35:00,
2013-08-14 07:40:00,74.6,72.8,29.94,NE,44,1.0,1.0,94,0.00,,,0.29,Wunderground v.1.15,2013-08-14 12:40:00,
2013-08-14 07:50:00,74.9,73.1,29.94,NNE,12,1.0,2.0,94,0.00,,,0.29,Wunderground v.1.15,2013-08-14 12:50:00,
2013-08-14 07:55:00,75.0,73.2,29.95,NNE,14,0.0,2.0,94,0.00,,,0.29,Wunderground v.1.15,2013-08-14 12:55:00,
2013-08-14 08:00:00,75.2,73.4,29.95,NNE,26,0.0,0.0,94,0.00,,,0.29,Wunderground v.1.15,2013-08-14 13:00:00,
2013-08-14 08:10:00,75.6,73.8,29.95,NE,49,1.0,1.0,94,0.00,,,0.29,Wunderground v.1.15,2013-08-14 13:10:00,
2013-08-14 08:15:00,75.6,73.8,29.96,NE,47,0.0,1.0,94,0.00,,,0.29,Wunderground v.1.15,2013-08-14 13:15:00,
2013-08-14 08:25:00,75.9,74.0,29.96,ENE,65,1.0,1.0,94,0.00,,,0.29,Wunderground v.1.15,2013-08-14 13:25:00,
2013-08-14 08:30:00,76.2,74.3,29.96,ENE,65,1.0,1.0,94,0.00,,,0.29,Wunderground v.1.15,2013-08-14 13:30:00,
2013-08-14 08:35:00,76.7,74.8,29.96,NE,38,1.0,1.0,94,0.00,,,0.29,Wunderground v.1.15,2013-08-14 13:35:00,
2013-08-14 08:40:00,76.8,74.9,29.96,NE,50,2.0,2.0,94,0.00,,,0.29,Wunderground v.1.15,2013-08-14 13:40:00,
2013-08-14 08:50:00,76.7,74.8,29.96,ENE,57,3.0,3.0,94,0.00,,,0.29,Wunderground v.1.15,2013-08-14 13:50:00,
2013-08-14 08:55:00,76.9,74.7,29.96,NE,48,3.0,3.0,93,0.00,,,0.29,Wunderground v.1.15,2013-08-14 13:55:00,
2013-08-14 09:00:00,77.2,74.7,29.97,NE,42,2.0,2.0,92,0.00,,,0.29,Wunderground v.1.15,2013-08-14 14:00:00,
2013-08-14 09:10:00,77.6,75.1,29.97,NE,53,2.0,2.0,92,0.00,,,0.29,Wunderground v.1.15,2013-08-14 14:10:00,
2013-08-14 09:15:00,77.8,75.0,29.97,NE,55,2.0,5.0,91,0.00,,,0.29,Wunderground v.1.15,2013-08-14 14:15:00,
2013-08-14 09:20:00,78.1,74.9,29.97,NE,53,3.0,5.0,90,0.00,,,0.29,Wunderground v.1.15,2013-08-14 14:20:00,
2013-08-14 09:25:00,79.1,75.6,29.96,ENE,57,3.0,5.0,89,0.00,,,0.29,Wunderground v.1.15,2013-08-14 14:25:00,
2013-08-14 09:30:00,79.5,75.3,29.97,ENE,57,2.0,3.0,87,0.00,,,0.29,Wunderground v.1.15,2013-08-14 14:30:00,
2013-08-14 09:40:00,79.3,75.1,29.97,NNE,17,3.0,3.0,87,0.00,,,0.29,Wunderground v.1.15,2013-08-14 14:40:00,
2013-08-14 09:45:00,79.2,74.6,29.98,NNE,29,3.0,4.0,86,0.00,,,0.29,Wunderground v.1.15,2013-08-14 14:45:00,
2013-08-14 09:50:00,79.2,74.6,29.98,NNE,28,2.0,2.0,86,0.00,,,0.29,Wunderground v.1.15,2013-08-14 14:50:00,
2013-08-14 09:55:00,79.2,74.6,29.98,NNE,33,1.0,3.0,86,0.00,,,0.29,Wunderground v.1.15,2013-08-14 14:55:00,
2013-08-14 10:00:00,79.2,74.6,29.97,NNE,33,1.0,1.0,86,0.00,,,0.29,Wunderground v.1.15,2013-08-14 15:00:00,
2013-08-14 10:10:00,79.2,75.0,29.97,NE,38,0.0,0.0,87,0.00,,,0.29,Wunderground v.1.15,2013-08-14 15:10:00,
2013-08-14 10:20:00,79.3,74.7,29.97,NE,38,0.0,0.0,86,0.00,,,0.29,Wunderground v.1.15,2013-08-14 15:20:00,
2013-08-14 10:25:00,79.4,75.2,29.98,NE,38,0.0,0.0,87,0.00,,,0.29,Wunderground v.1.15,2013-08-14 15:25:00,
2013-08-14 10:30:00,79.4,74.8,29.97,NE,36,0.0,0.0,86,0.00,,,0.29,Wunderground v.1.15,2013-08-14 15:30:00,
2013-08-14 10:35:00,79.6,75.4,29.98,NE,35,0.0,3.0,87,0.00,,,0.29,Wunderground v.1.15,2013-08-14 15:35:00,
2013-08-14 10:40:00,79.7,75.5,29.99,NNE,32,0.0,0.0,87,0.00,,,0.30,Wunderground v.1.15,2013-08-14 15:40:00,
2013-08-14 10:50:00,79.5,74.9,29.99,NNE,24,0.0,0.0,86,0.00,,,0.30,Wunderground v.1.15,2013-08-14 15:50:00,
2013-08-14 10:55:00,79.4,74.5,29.99,NNE,22,0.0,0.0,85,0.00,,,0.30,Wunderground v.1.15,2013-08-14 15:55:00,
2013-08-14 11:00:00,79.5,75.3,30.00,NNE,18,0.0,0.0,87,0.00,,,0.30,Wunderground v.1.15,2013-08-14 16:00:00,
2013-08-14 11:10:00,79.5,75.6,30.00,North,9,0.0,0.0,88,0.00,,,0.30,Wunderground v.1.15,2013-08-14 16:10:00,
2013-08-14 11:15:00,79.4,75.5,30.00,NNW,334,1.0,1.0,88,0.00,,,0.30,Wunderground v.1.15,2013-08-14 16:15:00,
2013-08-14 11:20:00,79.3,75.4,29.99,NNW,333,1.0,1.0,88,0.00,,,0.31,Wunderground v.1.15,2013-08-14 16:20:00,
2013-08-14 11:25:00,79.4,75.9,29.99,NNW,333,0.0,1.0,89,0.00,,,0.31,Wunderground v.1.15,2013-08-14 16:25:00,
2013-08-14 11:35:00,80.5,77.0,29.99,NNW,333,0.0,0.0,89,0.00,,,0.31,Wunderground v.1.15,2013-08-14 16:35:00,
2013-08-14 11:40:00,81.2,77.3,29.99,NNW,333,0.0,0.0,88,0.00,,,0.31,Wunderground v.1.15,2013-08-14 16:40:00,
2013-08-14 11:45:00,81.0,76.4,29.98,NNW,333,0.0,0.0,86,0.00,,,0.31,Wunderground v.1.15,2013-08-14 16:45:00,
2013-08-14 11:50:00,81.0,76.4,29.99,NNW,340,0.0,0.0,86,0.00,,,0.31,Wunderground v.1.15,2013-08-14 16:50:00,
2013-08-14 11:55:00,80.8,75.9,29.99,NNW,338,0.0,7.0,85,0.00,,,0.31,Wunderground v.1.15,2013-08-14 16:55:00,
2013-08-14 12:00:00,80.7,75.8,29.99,NNW,338,2.0,4.0,85,0.00,,,0.31,Wunderground v.1.15,2013-08-14 17:00:00,
2013-08-14 12:10:00,80.9,75.6,29.99,NNW,342,0.0,0.0,84,0.00,,,0.31,Wunderground v.1.15,2013-08-14 17:10:00,
2013-08-14 12:15:00,81.2,76.3,29.98,NNW,342,1.0,1.0,85,0.00,,,0.31,Wunderground v.1.15,2013-08-14 17:15:00,
2013-08-14 12:25:00,81.6,76.3,29.98,NNW,342,0.0,0.0,84,0.00,,,0.31,Wunderground v.1.15,2013-08-14 17:25:00,
2013-08-14 12:30:00,81.6,75.9,29.98,NNW,342,0.0,0.0,83,0.00,,,0.31,Wunderground v.1.15,2013-08-14 17:30:00,
2013-08-14 12:35:00,81.7,76.0,29.98,NNW,342,0.0,0.0,83,0.00,,,0.31,Wunderground v.1.15,2013-08-14 17:35:00,
2013-08-14 12:40:00,81.8,76.1,29.98,NNW,342,0.0,0.0,83,0.00,,,0.31,Wunderground v.1.15,2013-08-14 17:40:00,
2013-08-14 12:50:00,81.9,76.2,29.97,NNW,342,0.0,0.0,83,0.00,,,0.31,Wunderground v.1.15,2013-08-14 17:50:00,
2013-08-14 13:00:00,82.4,76.0,29.96,NNW,344,0.0,0.0,81,0.00,,,0.31,Wunderground v.1.15,2013-08-14 18:00:00,
2013-08-14 13:10:00,82.8,76.4,29.96,NNW,342,0.0,0.0,81,0.00,,,0.31,Wunderground v.1.15,2013-08-14 18:10:00,
2013-08-14 13:40:00,86.0,76.7,29.95,North,9,1.0,1.0,74,0.00,,,0.31,Wunderground v.1.15,2013-08-14 18:40:00,
2013-08-14 13:45:00,85.9,77.1,29.95,North,9,1.0,1.0,75,0.00,,,0.31,Wunderground v.1.15,2013-08-14 18:45:00,
2013-08-14 14:00:00,86.8,75.4,29.95,NNE,15,2.0,2.0,69,0.00,,,0.31,Wunderground v.1.15,2013-08-14 19:00:00,
2013-08-14 14:15:00,87.6,75.3,29.94,North,9,2.0,5.0,67,0.00,,,0.31,Wunderground v.1.15,2013-08-14 19:15:00,
2013-08-14 14:20:00,87.2,74.9,29.94,North,355,2.0,6.0,67,0.00,,,0.31,Wunderground v.1.15,2013-08-14 19:20:00,
2013-08-14 14:30:00,87.0,75.2,29.94,North,360,2.0,4.0,68,0.00,,,0.31,Wunderground v.1.15,2013-08-14 19:30:00,
2013-08-14 14:40:00,88.1,75.8,29.93,NNW,339,3.0,7.0,67,0.00,,,0.31,Wunderground v.1.15,2013-08-14 19:40:00,
2013-08-14 14:45:00,89.0,75.7,29.93,NNW,341,3.0,7.0,65,0.00,,,0.31,Wunderground v.1.15,2013-08-14 19:45:00,
2013-08-14 14:55:00,89.4,74.7,29.93,North,351,5.0,10.0,62,0.00,,,0.31,Wunderground v.1.15,2013-08-14 19:55:00,
2013-08-14 15:00:00,89.8,75.0,29.93,North,9,7.0,7.0,62,0.00,,,0.31,Wunderground v.1.15,2013-08-14 20:00:00,
2013-08-14 15:10:00,89.5,74.3,29.92,North,10,4.0,4.0,61,0.00,,,0.31,Wunderground v.1.15,2013-08-14 20:10:00,
2013-08-14 15:15:00,89.5,74.8,29.92,NNW,344,3.0,9.0,62,0.00,,,0.31,Wunderground v.1.15,2013-08-14 20:15:00,
2013-08-14 15:25:00,90.1,75.8,29.92,North,360,4.0,4.0,63,0.00,,,0.31,Wunderground v.1.15,2013-08-14 20:25:00,
2013-08-14 15:30:00,90.6,74.8,29.91,NNW,342,3.0,8.0,60,0.00,,,0.31,Wunderground v.1.15,2013-08-14 20:30:00,
2013-08-14 15:35:00,91.4,74.5,29.91,North,355,4.0,8.0,58,0.00,,,0.31,Wunderground v.1.15,2013-08-14 20:35:00,
2013-08-14 15:50:00,91.5,74.6,29.91,ENE,69,4.0,4.0,58,0.00,,,0.31,Wunderground v.1.15,2013-08-14 20:50:00,
2013-08-14 15:55:00,90.9,74.6,29.91,ENE,69,3.0,4.0,59,0.00,,,0.31,Wunderground v.1.15,2013-08-14 20:55:00,
2013-08-14 16:00:00,90.7,73.4,29.90,ENE,69,2.0,2.0,57,0.00,,,0.31,Wunderground v.1.15,2013-08-14 21:00:00,
2013-08-14 16:10:00,90.8,75.0,29.89,NE,49,2.0,2.0,60,0.00,,,0.31,Wunderground v.1.15,2013-08-14 21:10:00,
2013-08-14 16:15:00,92.0,74.1,29.89,NE,47,2.0,8.0,56,0.00,,,0.31,Wunderground v.1.15,2013-08-14 21:15:00,
2013-08-14 16:25:00,92.8,73.7,29.89,NE,55,3.0,4.0,54,0.00,,,0.31,Wunderground v.1.15,2013-08-14 21:25:00,
2013-08-14 16:30:00,91.8,72.8,29.89,NE,41,4.0,7.0,54,0.00,,,0.31,Wunderground v.1.15,2013-08-14 21:30:00,
2013-08-14 16:40:00,91.3,74.4,29.89,ENE,65,4.0,4.0,58,0.00,,,0.31,Wunderground v.1.15,2013-08-14 21:40:00,
2013-08-14 16:45:00,90.8,73.5,29.89,NE,53,4.0,6.0,57,0.00,,,0.31,Wunderground v.1.15,2013-08-14 21:45:00,
2013-08-14 16:50:00,90.2,73.9,29.89,NE,55,5.0,13.0,59,0.00,,,0.31,Wunderground v.1.15,2013-08-14 21:50:00,
2013-08-14 16:55:00,89.6,74.4,29.89,East,89,7.0,13.0,61,0.00,,,0.31,Wunderground v.1.15,2013-08-14 21:55:00,
2013-08-14 17:00:00,89.0,73.8,29.90,ENE,69,7.0,17.0,61,0.00,,,0.31,Wunderground v.1.15,2013-08-14 22:00:00,
2013-08-14 17:10:00,87.2,73.5,29.90,ENE,74,10.0,10.0,64,0.00,,,0.31,Wunderground v.1.15,2013-08-14 22:10:00,
2013-08-14 17:20:00,86.2,72.6,29.89,ENE,69,8.0,11.0,64,0.00,,,0.31,Wunderground v.1.15,2013-08-14 22:20:00,
2013-08-14 17:25:00,85.8,72.2,29.89,ENE,58,7.0,11.0,64,0.00,,,0.31,Wunderground v.1.15,2013-08-14 22:25:00,
2013-08-14 17:30:00,85.7,72.6,29.90,East,84,6.0,6.0,65,0.00,,,0.31,Wunderground v.1.15,2013-08-14 22:30:00,
2013-08-14 17:35:00,85.6,72.0,29.90,ENE,60,6.0,6.0,64,0.00,,,0.31,Wunderground v.1.15,2013-08-14 22:35:00,
2013-08-14 17:40:00,85.7,72.6,29.90,ENE,57,4.0,11.0,65,0.00,,,0.31,Wunderground v.1.15,2013-08-14 22:40:00,
2013-08-14 17:45:00,85.7,72.1,29.90,ENE,63,4.0,11.0,64,0.00,,,0.31,Wunderground v.1.15,2013-08-14 22:45:00,
2013-08-14 17:55:00,85.0,72.4,29.91,North,5,7.0,14.0,66,0.00,,,0.31,Wunderground v.1.15,2013-08-14 22:55:00,
2013-08-14 18:00:00,83.7,73.3,29.92,North,9,11.0,14.0,71,0.29,,,0.32,Wunderground v.1.15,2013-08-14 23:00:00,
2013-08-14 18:05:00,81.2,73.7,29.93,NNE,27,13.0,14.0,78,2.65,,,0.49,Wunderground v.1.15,2013-08-14 23:05:00,
2013-08-14 18:15:00,77.7,73.2,29.94,NE,45,6.0,10.0,86,0.79,,,0.62,Wunderground v.1.15,2013-08-14 23:15:00,
2013-08-14 18:25:00,76.8,73.3,29.92,ENE,65,2.0,6.0,89,0.27,,,0.72,Wunderground v.1.15,2013-08-14 23:25:00,
2013-08-14 18:30:00,76.9,73.7,29.92,East,80,0.0,0.0,90,0.20,,,0.73,Wunderground v.1.15,2013-08-14 23:30:00,
2013-08-14 18:40:00,76.8,73.6,29.90,SSE,150,4.0,5.0,90,0.05,,,0.73,Wunderground v.1.15,2013-08-14 23:40:00,
2013-08-14 18:45:00,76.7,73.9,29.91,SSE,149,4.0,5.0,91,0.04,,,0.74,Wunderground v.1.15,2013-08-14 23:45:00,
2013-08-14 18:50:00,76.5,73.7,29.91,SSE,148,1.0,1.0,91,0.04,,,0.74,Wunderground v.1.15,2013-08-14 23:50:00,
2013-08-14 19:00:00,76.2,73.4,29.91,SSE,148,0.0,0.0,91,0.00,,,0.74,Wunderground v.1.15,2013-08-15 00:00:00,
2013-08-14 19:10:00,76.3,73.8,29.90,SSE,148,0.0,0.0,92,0.00,,,0.74,Wunderground v.1.15,2013-08-15 00:10:00,
2013-08-14 19:15:00,76.4,73.9,29.90,SSE,148,0.0,0.0,92,0.00,,,0.74,Wunderground v.1.15,2013-08-15 00:15:00,
2013-08-14 19:20:00,76.4,73.9,29.90,SSE,148,0.0,0.0,92,0.00,,,0.74,Wunderground v.1.15,2013-08-15 00:20:00,
2013-08-14 19:25:00,76.4,73.9,29.91,SSE,148,0.0,0.0,92,0.00,,,0.74,Wunderground v.1.15,2013-08-15 00:25:00,
2013-08-14 19:35:00,76.4,73.9,29.92,SSE,148,0.0,0.0,92,0.00,,,0.74,Wunderground v.1.15,2013-08-15 00:35:00,
2013-08-14 19:40:00,76.4,73.9,29.92,SE,146,0.0,0.0,92,0.00,,,0.74,Wunderground v.1.15,2013-08-15 00:40:00,
2013-08-14 19:45:00,76.4,74.2,29.92,East,100,0.0,0.0,93,0.00,,,0.74,Wunderground v.1.15,2013-08-15 00:45:00,
2013-08-14 19:50:00,76.5,74.3,29.92,East,88,1.0,1.0,93,0.00,,,0.74,Wunderground v.1.15,2013-08-15 00:50:00,
2013-08-14 20:00:00,76.6,74.4,29.93,East,84,1.0,1.0,93,0.00,,,0.74,Wunderground v.1.15,2013-08-15 01:00:00,
2013-08-14 20:10:00,76.2,73.7,29.93,East,101,1.0,2.0,92,0.00,,,0.74,Wunderground v.1.15,2013-08-15 01:10:00,
2013-08-14 20:15:00,75.9,73.4,29.93,East,91,1.0,5.0,92,0.00,,,0.74,Wunderground v.1.15,2013-08-15 01:15:00,
2013-08-14 20:20:00,75.7,73.2,29.93,ESE,105,2.0,5.0,92,0.00,,,0.74,Wunderground v.1.15,2013-08-15 01:20:00,
2013-08-14 20:25:00,75.4,72.9,29.93,ESE,108,3.0,5.0,92,0.00,,,0.74,Wunderground v.1.15,2013-08-15 01:25:00,
2013-08-14 20:30:00,75.3,72.8,29.93,East,89,2.0,3.0,92,0.00,,,0.74,Wunderground v.1.15,2013-08-15 01:30:00,
2013-08-14 20:40:00,75.0,72.5,29.93,ESE,103,3.0,3.0,92,0.00,,,0.74,Wunderground v.1.15,2013-08-15 01:40:00,
2013-08-14 20:45:00,75.0,72.5,29.94,ESE,104,1.0,3.0,92,0.00,,,0.74,Wunderground v.1.15,2013-08-15 01:45:00,
2013-08-14 20:50:00,74.9,72.7,29.93,ESE,104,0.0,7.0,93,0.00,,,0.74,Wunderground v.1.15,2013-08-15 01:50:00,
2013-08-14 20:55:00,74.9,72.7,29.94,ESE,104,0.0,7.0,93,0.00,,,0.74,Wunderground v.1.15,2013-08-15 01:55:00,
2013-08-14 21:00:00,74.8,72.3,29.94,ESE,103,0.0,1.0,92,0.00,,,0.74,Wunderground v.1.15,2013-08-15 02:00:00,
2013-08-14 21:10:00,74.6,72.1,29.95,ESE,103,0.0,0.0,92,0.00,,,0.74,Wunderground v.1.15,2013-08-15 02:10:00,
2013-08-14 21:15:00,74.6,72.1,29.94,East,98,1.0,6.0,92,0.00,,,0.74,Wunderground v.1.15,2013-08-15 02:15:00,
2013-08-14 21:25:00,74.5,72.0,29.95,East,99,1.0,1.0,92,0.00,,,0.74,Wunderground v.1.15,2013-08-15 02:25:00,
2013-08-14 21:30:00,74.6,72.1,29.95,East,99,0.0,0.0,92,0.00,,,0.74,Wunderground v.1.15,2013-08-15 02:30:00,
2013-08-14 21:35:00,74.6,72.1,29.95,East,99,0.0,0.0,92,0.00,,,0.74,Wunderground v.1.15,2013-08-15 02:35:00,
2013-08-14 21:40:00,74.6,72.1,29.95,East,99,0.0,0.0,92,0.00,,,0.74,Wunderground v.1.15,2013-08-15 02:40:00,
2013-08-14 21:50:00,74.7,72.2,29.96,East,99,0.0,0.0,92,0.00,,,0.74,Wunderground v.1.15,2013-08-15 02:50:00,
2013-08-14 21:55:00,74.7,72.2,29.96,East,99,0.0,0.0,92,0.00,,,0.74,Wunderground v.1.15,2013-08-15 02:55:00,
2013-08-14 22:00:00,74.7,72.2,29.96,East,100,0.0,0.0,92,0.00,,,0.74,Wunderground v.1.15,2013-08-15 03:00:00,
2013-08-14 22:10:00,74.7,72.5,29.96,East,99,0.0,0.0,93,0.00,,,0.74,Wunderground v.1.15,2013-08-15 03:10:00,
2013-08-14 22:15:00,74.7,72.5,29.96,East,99,0.0,0.0,93,0.00,,,0.74,Wunderground v.1.15,2013-08-15 03:15:00,
2013-08-14 22:25:00,74.6,72.4,29.96,East,100,0.0,0.0,93,0.00,,,0.74,Wunderground v.1.15,2013-08-15 03:25:00,
2013-08-14 22:30:00,74.6,72.4,29.95,East,99,0.0,0.0,93,0.00,,,0.74,Wunderground v.1.15,2013-08-15 03:30:00,
2013-08-14 22:35:00,74.6,72.1,29.97,East,99,0.0,0.0,92,0.00,,,0.74,Wunderground v.1.15,2013-08-15 03:35:00,
2013-08-14 22:40:00,74.6,72.1,29.96,East,99,0.0,0.0,92,0.00,,,0.74,Wunderground v.1.15,2013-08-15 03:40:00,
2013-08-14 22:50:00,74.6,72.1,29.96,East,99,0.0,0.0,92,0.00,,,0.74,Wunderground v.1.15,2013-08-15 03:50:00,
2013-08-14 22:55:00,74.6,72.1,29.96,East,99,0.0,0.0,92,0.00,,,0.74,Wunderground v.1.15,2013-08-15 03:55:00,
2013-08-14 23:00:00,74.5,72.0,29.97,East,99,1.0,1.0,92,0.00,,,0.74,Wunderground v.1.15,2013-08-15 04:00:00,
2013-08-14 23:05:00,74.4,71.9,29.97,East,99,0.0,1.0,92,0.00,,,0.74,Wunderground v.1.15,2013-08-15 04:05:00,
2013-08-14 23:10:00,74.3,71.8,29.97,East,99,0.0,0.0,92,0.00,,,0.74,Wunderground v.1.15,2013-08-15 04:10:00,
2013-08-14 23:15:00,74.3,71.8,29.97,East,98,0.0,0.0,92,0.00,,,0.74,Wunderground v.1.15,2013-08-15 04:15:00,
2013-08-14 23:20:00,74.3,71.8,29.97,East,98,0.0,0.0,92,0.00,,,0.74,Wunderground v.1.15,2013-08-15 04:20:00,
2013-08-14 23:25:00,74.3,71.8,29.97,East,98,0.0,0.0,92,0.00,,,0.74,Wunderground v.1.15,2013-08-15 04:25:00,
2013-08-14 23:35:00,74.2,71.7,29.97,East,98,0.0,0.0,92,0.00,,,0.74,Wunderground v.1.15,2013-08-15 04:35:00,
2013-08-14 23:40:00,74.1,71.6,29.97,East,98,0.0,0.0,92,0.00,,,0.74,Wunderground v.1.15,2013-08-15 04:40:00,
2013-08-14 23:45:00,74.0,71.5,29.97,East,98,0.0,0.0,92,0.00,,,0.74,Wunderground v.1.15,2013-08-15 04:45:00,
2013-08-14 23:55:00,74.1,71.6,29.97,East,98,0.0,0.0,92,0.00,,,0.74,Wunderground v.1.15,2013-08-15 04:55:00,